createdAt,value
2022-10-05T00:01:09.597Z,24.58
2022-10-05T00:03:36.080Z,25.98
2022-10-05T00:06:02.434Z,25.15
2022-10-05T00:08:28.790Z,24.47
2022-10-05T00:10:55.168Z,24.21
2022-10-05T00:13:21.522Z,24.27
2022-10-05T00:15:47.905Z,24.25
2022-10-05T00:18:14.290Z,24.44
2022-10-05T00:20:40.631Z,24.70
2022-10-05T00:23:06.993Z,24.55
2022-10-05T00:25:33.472Z,24.30
2022-10-05T00:27:59.849Z,24.66
2022-10-05T00:30:26.264Z,24.77
2022-10-05T00:32:57.250Z,26.30
2022-10-05T00:35:25.739Z,24.88
2022-10-05T00:37:52.083Z,24.48
2022-10-05T00:40:18.585Z,24.53
2022-10-05T00:42:44.944Z,24.40
2022-10-05T00:45:11.331Z,24.29
2022-10-05T00:47:37.720Z,24.36
2022-10-05T00:50:04.088Z,24.37
2022-10-05T00:52:30.459Z,24.42
2022-10-05T00:54:56.842Z,24.67
2022-10-05T00:57:23.190Z,24.63
2022-10-05T00:59:49.534Z,25.67
2022-10-05T01:02:15.963Z,25.44
2022-10-05T01:04:42.348Z,24.96
2022-10-05T01:07:08.716Z,24.45
2022-10-05T01:09:35.073Z,24.34
2022-10-05T01:12:01.436Z,24.20
2022-10-05T01:14:27.775Z,24.50
2022-10-05T01:16:54.228Z,24.00
2022-10-05T01:19:20.643Z,24.13
2022-10-05T01:21:47.348Z,24.47
2022-10-05T01:24:13.830Z,24.46
2022-10-05T01:26:40.180Z,23.89
2022-10-05T01:29:06.517Z,26.05
2022-10-05T01:31:33.091Z,25.21
2022-10-05T01:33:59.539Z,24.44
2022-10-05T01:36:25.914Z,24.10
2022-10-05T01:38:52.279Z,24.02
2022-10-05T01:41:18.646Z,24.28
2022-10-05T01:43:45.012Z,23.97
2022-10-05T01:46:11.457Z,24.30
2022-10-05T01:48:37.814Z,24.04
2022-10-05T01:51:04.186Z,24.39
2022-10-05T01:53:30.631Z,24.51
2022-10-05T01:55:56.969Z,24.42
2022-10-05T01:58:23.342Z,26.00
2022-10-05T02:00:49.736Z,24.76
2022-10-05T02:03:16.105Z,24.26
2022-10-05T02:05:42.476Z,24.11
2022-10-05T02:08:08.842Z,23.96
2022-10-05T02:10:35.178Z,24.18
2022-10-05T02:13:01.519Z,24.05
2022-10-05T02:15:27.910Z,24.26
2022-10-05T02:17:54.263Z,24.34
2022-10-05T02:20:20.624Z,24.36
2022-10-05T02:22:46.987Z,24.34
2022-10-05T02:25:13.320Z,25.51
2022-10-05T02:27:39.651Z,25.71
2022-10-05T02:30:06.126Z,24.47
2022-10-05T02:32:32.478Z,24.45
2022-10-05T02:34:58.839Z,23.84
2022-10-05T02:37:25.231Z,23.84
2022-10-05T02:39:51.572Z,24.30
2022-10-05T02:42:17.908Z,24.35
2022-10-05T02:44:44.310Z,24.11
2022-10-05T02:47:10.635Z,24.23
2022-10-05T02:49:36.967Z,24.21
2022-10-05T02:52:03.342Z,24.07
2022-10-05T02:54:29.726Z,25.71
2022-10-05T02:56:56.078Z,25.25
2022-10-05T02:59:22.505Z,24.65
2022-10-05T03:01:48.893Z,24.22
2022-10-05T03:04:15.300Z,24.18
2022-10-05T03:06:41.793Z,23.91
2022-10-05T03:09:08.146Z,24.02
2022-10-05T03:11:34.530Z,24.22
2022-10-05T03:14:01.033Z,24.00
2022-10-05T03:16:27.433Z,24.04
2022-10-05T03:18:53.851Z,23.81
2022-10-05T03:21:20.228Z,23.78
2022-10-05T03:23:46.571Z,26.04
2022-10-05T03:26:12.941Z,24.92
2022-10-05T03:28:39.507Z,24.18
2022-10-05T03:31:05.890Z,24.02
2022-10-05T03:33:32.306Z,24.12
2022-10-05T03:35:58.770Z,23.99
2022-10-05T03:38:25.136Z,23.81
2022-10-05T03:40:51.485Z,23.94
2022-10-05T03:43:17.886Z,23.92
2022-10-05T03:45:44.245Z,24.10
2022-10-05T03:48:10.647Z,24.32
2022-10-05T03:50:37.031Z,24.46
2022-10-05T03:53:03.375Z,25.63
2022-10-05T03:55:29.725Z,24.54
2022-10-05T03:57:56.147Z,23.85
2022-10-05T04:00:22.532Z,24.11
2022-10-05T04:02:48.945Z,23.52
2022-10-05T04:05:15.457Z,23.26
2022-10-05T04:07:41.813Z,22.93
2022-10-05T04:10:08.143Z,23.04
2022-10-05T04:12:34.511Z,23.25
2022-10-05T04:15:00.848Z,22.90
2022-10-05T04:17:27.197Z,22.75
2022-10-05T04:19:53.576Z,24.54
2022-10-05T04:22:19.946Z,23.84
2022-10-05T04:24:46.361Z,23.34
2022-10-05T04:27:12.748Z,22.85
2022-10-05T04:29:39.106Z,23.05
2022-10-05T04:32:05.460Z,23.06
2022-10-05T04:34:31.853Z,23.06
2022-10-05T04:36:58.207Z,23.11
2022-10-05T04:39:24.580Z,23.05
2022-10-05T04:41:51.033Z,22.96
2022-10-05T04:44:17.368Z,22.90
2022-10-05T04:46:43.821Z,24.48
2022-10-05T04:49:10.286Z,23.98
2022-10-05T04:51:36.630Z,23.40
2022-10-05T04:54:03.013Z,23.13
2022-10-05T04:56:29.409Z,22.86
2022-10-05T04:58:55.769Z,22.86
2022-10-05T05:01:22.180Z,23.11
2022-10-05T05:03:48.801Z,23.18
2022-10-05T05:06:17.788Z,23.06
2022-10-05T05:08:44.611Z,23.05
2022-10-05T05:11:15.140Z,22.96
2022-10-05T05:13:43.141Z,24.68
2022-10-05T05:16:09.506Z,24.14
2022-10-05T05:18:35.956Z,23.27
2022-10-05T05:21:02.304Z,23.20
2022-10-05T05:23:28.650Z,23.04
2022-10-05T05:25:55.198Z,23.01
2022-10-05T05:28:21.651Z,23.13
2022-10-05T05:30:48.078Z,23.05
2022-10-05T05:33:14.453Z,23.31
2022-10-05T05:35:40.805Z,23.17
2022-10-05T05:38:07.156Z,22.93
2022-10-05T05:40:33.576Z,24.77
2022-10-05T05:42:59.933Z,24.21
2022-10-05T05:45:26.356Z,23.17
2022-10-05T05:47:52.774Z,22.98
2022-10-05T05:50:19.156Z,22.74
2022-10-05T05:52:45.544Z,22.92
2022-10-05T05:55:12.016Z,22.91
2022-10-05T05:57:38.386Z,23.23
2022-10-05T06:00:04.737Z,23.21
2022-10-05T06:02:31.282Z,23.28
2022-10-05T06:04:57.743Z,23.10
2022-10-05T06:07:29.459Z,24.29
2022-10-05T06:09:56.869Z,23.97
2022-10-05T06:12:23.203Z,23.07
2022-10-05T06:14:49.560Z,23.25
2022-10-05T06:17:16.054Z,23.13
2022-10-05T06:19:42.393Z,23.41
2022-10-05T06:22:08.801Z,23.56
2022-10-05T06:24:35.212Z,23.52
2022-10-05T06:27:01.571Z,23.54
2022-10-05T06:29:27.969Z,23.63
2022-10-05T06:31:58.771Z,24.16
2022-10-05T06:34:25.463Z,25.06
2022-10-05T06:36:51.811Z,24.07
2022-10-05T06:39:18.241Z,23.56
2022-10-05T06:41:44.600Z,23.55
2022-10-05T06:44:10.968Z,23.63
2022-10-05T06:46:37.376Z,23.69
2022-10-05T06:49:03.757Z,23.75
2022-10-05T06:51:30.137Z,23.91
2022-10-05T06:53:56.617Z,24.17
2022-10-05T06:56:22.975Z,24.37
2022-10-05T06:58:49.313Z,25.58
2022-10-05T07:01:16.098Z,24.99
2022-10-05T07:03:43.692Z,24.40
2022-10-05T07:06:10.071Z,24.29
2022-10-05T07:08:36.472Z,24.30
2022-10-05T07:11:02.903Z,24.27
2022-10-05T07:13:29.257Z,24.51
2022-10-05T07:15:55.640Z,24.47
2022-10-05T07:18:22.137Z,24.66
2022-10-05T07:20:49.421Z,24.54
2022-10-05T07:23:15.909Z,25.99
2022-10-05T07:25:42.259Z,25.45
2022-10-05T07:28:08.675Z,24.94
2022-10-05T07:30:35.228Z,24.50
2022-10-05T07:33:01.693Z,24.41
2022-10-05T07:35:28.096Z,24.66
2022-10-05T07:37:54.482Z,24.92
2022-10-05T07:40:20.829Z,24.98
2022-10-05T07:42:51.869Z,24.86
2022-10-05T07:45:19.073Z,25.08
2022-10-05T07:47:45.441Z,26.09
2022-10-05T07:50:11.796Z,26.31
2022-10-05T07:52:38.318Z,25.27
2022-10-05T07:55:04.725Z,24.90
2022-10-05T07:57:31.076Z,24.88
2022-10-05T07:59:57.611Z,24.91
2022-10-05T08:02:24.135Z,24.95
2022-10-05T08:04:50.556Z,24.98
2022-10-05T08:07:17.018Z,25.42
2022-10-05T08:09:43.439Z,25.47
2022-10-05T08:12:10.767Z,25.51
2022-10-05T08:14:37.309Z,27.00
2022-10-05T08:17:03.683Z,25.96
2022-10-05T08:19:30.084Z,25.39
2022-10-05T08:21:56.628Z,25.12
2022-10-05T08:24:23.012Z,25.32
2022-10-05T08:26:49.376Z,25.53
2022-10-05T08:29:15.886Z,25.72
2022-10-05T08:31:42.313Z,25.79
2022-10-05T08:34:08.668Z,25.69
2022-10-05T08:36:35.188Z,25.43
2022-10-05T08:39:01.542Z,26.92
2022-10-05T08:41:27.880Z,26.28
2022-10-05T08:43:54.389Z,25.60
2022-10-05T08:46:20.819Z,25.55
2022-10-05T08:48:47.263Z,25.36
2022-10-05T08:51:13.657Z,25.22
2022-10-05T08:53:40.066Z,25.54
2022-10-05T08:56:06.419Z,25.46
2022-10-05T08:58:32.779Z,25.68
2022-10-05T09:00:59.319Z,25.33
2022-10-05T09:03:25.698Z,26.53
2022-10-05T09:05:52.082Z,26.98
2022-10-05T09:08:18.466Z,25.92
2022-10-05T09:10:44.814Z,26.08
2022-10-05T09:13:11.324Z,26.25
2022-10-05T09:15:37.680Z,26.36
2022-10-05T09:18:04.054Z,26.56
2022-10-05T09:20:30.521Z,26.49
2022-10-05T09:22:56.854Z,26.61
2022-10-05T09:25:23.199Z,26.50
2022-10-05T09:27:49.682Z,26.08
2022-10-05T09:30:16.042Z,27.87
2022-10-05T09:32:42.413Z,27.10
2022-10-05T09:35:08.781Z,26.46
2022-10-05T09:37:35.158Z,26.46
2022-10-05T09:40:01.741Z,26.15
2022-10-05T09:42:28.217Z,26.19
2022-10-05T09:44:54.596Z,26.24
2022-10-05T09:47:21.016Z,26.37
2022-10-05T09:49:47.425Z,26.30
2022-10-05T09:52:18.668Z,26.19
2022-10-05T09:54:45.604Z,27.88
2022-10-05T09:57:12.127Z,27.30
2022-10-05T09:59:39.001Z,26.53
2022-10-05T10:02:05.412Z,26.28
2022-10-05T10:04:31.938Z,26.19
2022-10-05T10:06:58.292Z,26.04
2022-10-05T10:09:35.170Z,26.06
2022-10-05T10:12:02.933Z,26.15
2022-10-05T10:14:29.324Z,25.97
2022-10-05T10:16:55.710Z,25.52
2022-10-05T10:19:22.116Z,26.36
2022-10-05T10:21:48.890Z,26.62
2022-10-05T10:24:15.543Z,25.57
2022-10-05T10:26:41.927Z,24.59
2022-10-05T10:29:08.272Z,24.74
2022-10-05T10:31:34.683Z,24.77
2022-10-05T10:34:01.064Z,24.85
2022-10-05T10:36:27.409Z,24.82
2022-10-05T10:38:53.764Z,24.76
2022-10-05T10:41:20.204Z,24.88
2022-10-05T10:43:46.636Z,24.90
2022-10-05T10:46:13.055Z,26.15
2022-10-05T10:48:39.723Z,25.18
2022-10-05T10:51:06.106Z,24.45
2022-10-05T10:53:32.490Z,24.17
2022-10-05T10:55:58.971Z,24.42
2022-10-05T10:58:25.383Z,24.39
2022-10-05T11:00:51.813Z,24.77
2022-10-05T11:03:18.342Z,24.69
2022-10-05T11:05:48.011Z,24.48
2022-10-05T11:08:15.348Z,24.57
2022-10-05T11:10:41.833Z,25.75
2022-10-05T11:13:08.217Z,25.75
2022-10-05T11:15:34.683Z,24.94
2022-10-05T11:18:01.202Z,24.62
2022-10-05T11:20:27.551Z,24.27
2022-10-05T11:22:53.911Z,24.72
2022-10-05T11:25:20.284Z,24.65
2022-10-05T11:27:46.631Z,24.91
2022-10-05T11:30:12.985Z,24.58
2022-10-05T11:32:39.382Z,24.57
2022-10-05T11:35:05.760Z,24.65
2022-10-05T11:37:32.134Z,26.19
2022-10-05T11:39:58.629Z,25.31
2022-10-05T11:42:25.019Z,24.80
2022-10-05T11:44:51.362Z,24.54
2022-10-05T11:47:17.825Z,24.50
2022-10-05T11:49:44.188Z,24.70
2022-10-05T11:52:10.631Z,24.79
2022-10-05T11:54:58.580Z,24.95
2022-10-05T11:57:23.399Z,25.08
2022-10-05T11:59:49.877Z,25.03
2022-10-05T12:02:16.236Z,25.36
2022-10-05T12:04:42.607Z,26.61
2022-10-05T12:07:08.987Z,25.68
2022-10-05T12:09:35.650Z,25.11
2022-10-05T12:12:02.281Z,24.95
2022-10-05T12:14:28.706Z,24.81
2022-10-05T12:16:55.095Z,24.79
2022-10-05T12:19:21.928Z,25.05
2022-10-05T12:21:48.440Z,25.25
2022-10-05T12:24:14.930Z,25.66
2022-10-05T12:26:41.290Z,25.90
2022-10-05T12:29:07.675Z,26.38
2022-10-05T12:31:34.122Z,27.32
2022-10-05T12:34:00.564Z,25.82
2022-10-05T12:36:36.058Z,25.53
2022-10-05T12:39:12.899Z,25.23
2022-10-05T12:41:39.396Z,25.24
2022-10-05T12:44:05.758Z,25.41
2022-10-05T12:46:32.132Z,25.72
2022-10-05T12:48:58.605Z,25.66
2022-10-05T12:51:24.969Z,26.10
2022-10-05T12:53:51.370Z,26.00
2022-10-05T12:56:17.840Z,27.00
2022-10-05T12:58:44.199Z,27.25
2022-10-05T13:01:10.603Z,26.55
2022-10-05T13:03:37.016Z,26.24
2022-10-05T13:06:03.365Z,26.06
2022-10-05T13:08:29.760Z,25.75
2022-10-05T13:10:59.921Z,26.07
2022-10-05T13:13:28.163Z,26.04
2022-10-05T13:15:54.543Z,25.88
2022-10-05T13:18:20.998Z,25.55
2022-10-05T13:20:47.376Z,25.70
2022-10-05T13:23:13.775Z,27.03
2022-10-05T13:25:40.234Z,26.55
2022-10-05T13:28:06.610Z,25.86
2022-10-05T13:30:33.068Z,25.68
2022-10-05T13:32:59.557Z,25.48
2022-10-05T13:35:25.919Z,25.29
2022-10-05T13:37:52.275Z,25.51
2022-10-05T13:40:18.671Z,25.39
2022-10-05T13:42:45.002Z,25.25
2022-10-05T13:45:11.352Z,25.17
2022-10-05T13:47:37.854Z,25.41
2022-10-05T13:50:04.229Z,26.68
2022-10-05T13:52:30.571Z,26.71
2022-10-05T13:54:56.990Z,25.76
2022-10-05T13:57:23.320Z,25.66
2022-10-05T13:59:49.679Z,25.26
2022-10-05T14:02:16.321Z,25.66
2022-10-05T14:04:42.752Z,25.68
2022-10-05T14:07:09.129Z,25.58
2022-10-05T14:09:35.592Z,25.49
2022-10-05T14:12:01.973Z,25.54
2022-10-05T14:14:28.400Z,25.77
2022-10-05T14:16:55.094Z,26.63
2022-10-05T14:19:23.230Z,26.80
2022-10-05T14:21:49.594Z,25.63
2022-10-05T14:24:32.222Z,25.21
2022-10-05T14:27:02.341Z,25.39
2022-10-05T14:29:28.758Z,24.79
2022-10-05T14:31:55.319Z,25.17
2022-10-05T14:34:21.707Z,25.00
2022-10-05T14:36:48.187Z,24.90
2022-10-05T14:39:14.554Z,25.02
2022-10-05T14:41:41.116Z,24.84
2022-10-05T14:44:07.515Z,26.10
2022-10-05T14:46:35.438Z,26.12
2022-10-05T14:49:01.869Z,25.13
2022-10-05T14:51:28.370Z,24.68
2022-10-05T14:53:54.727Z,24.45
2022-10-05T14:56:21.092Z,24.71
2022-10-05T14:58:47.554Z,24.58
2022-10-05T15:01:14.009Z,24.54
2022-10-05T15:03:40.379Z,24.61
2022-10-05T15:06:06.862Z,24.80
2022-10-05T15:08:33.213Z,24.54
2022-10-05T15:10:59.618Z,25.25
2022-10-05T15:13:25.989Z,25.85
2022-10-05T15:15:52.384Z,25.01
2022-10-05T15:18:18.769Z,24.49
2022-10-05T15:20:45.244Z,24.42
2022-10-05T15:23:11.736Z,24.54
2022-10-05T15:25:38.195Z,24.60
2022-10-05T15:28:04.738Z,24.62
2022-10-05T15:30:31.168Z,24.94
2022-10-05T15:32:57.548Z,24.60
2022-10-05T15:35:23.956Z,24.64
2022-10-05T15:37:50.331Z,24.88
2022-10-05T15:40:16.742Z,26.32
2022-10-05T15:42:43.132Z,25.32
2022-10-05T15:45:09.489Z,24.90
2022-10-05T15:47:35.829Z,24.62
2022-10-05T15:50:02.309Z,24.69
2022-10-05T15:52:28.675Z,24.72
2022-10-05T15:54:55.023Z,25.08
2022-10-05T15:57:21.412Z,24.97
2022-10-05T15:59:47.797Z,24.81
2022-10-05T16:02:14.264Z,24.93
2022-10-05T16:04:40.661Z,25.10
2022-10-05T16:07:07.006Z,26.67
2022-10-05T16:09:33.392Z,25.86
2022-10-05T16:12:00.289Z,25.16
2022-10-05T16:14:26.703Z,24.98
2022-10-05T16:16:53.108Z,25.30
2022-10-05T16:19:24.037Z,24.96
2022-10-05T16:21:50.402Z,25.13
2022-10-05T16:24:16.761Z,25.37
2022-10-05T16:26:43.333Z,25.63
2022-10-05T16:29:09.709Z,25.10
2022-10-05T16:31:36.072Z,24.90
2022-10-05T16:34:02.443Z,27.16
2022-10-05T16:36:28.803Z,25.91
2022-10-05T16:38:55.157Z,25.35
2022-10-05T16:41:21.576Z,24.91
2022-10-05T16:43:47.927Z,24.66
2022-10-05T16:46:14.337Z,25.04
2022-10-05T16:48:40.890Z,24.87
2022-10-05T16:51:07.342Z,25.11
2022-10-05T16:53:33.739Z,25.18
2022-10-05T16:56:00.231Z,25.30
2022-10-05T16:58:26.657Z,24.97
2022-10-05T17:00:53.030Z,25.57
2022-10-05T17:03:19.514Z,26.61
2022-10-05T17:05:45.884Z,25.70
2022-10-05T17:08:12.258Z,24.90
2022-10-05T17:10:38.731Z,24.82
2022-10-05T17:13:05.072Z,25.00
2022-10-05T17:15:31.451Z,25.10
2022-10-05T17:17:57.851Z,25.29
2022-10-05T17:20:24.227Z,25.41
2022-10-05T17:22:50.590Z,25.60
2022-10-05T17:25:16.989Z,26.07
2022-10-05T17:27:46.474Z,25.83
2022-10-05T17:30:15.116Z,27.30
2022-10-05T17:32:41.475Z,27.09
2022-10-05T17:35:07.853Z,26.15
2022-10-05T17:37:34.206Z,25.87
2022-10-05T17:40:00.649Z,25.93
2022-10-05T17:42:27.004Z,25.68
2022-10-05T17:44:53.374Z,25.68
2022-10-05T17:47:19.724Z,25.73
2022-10-05T17:49:46.366Z,26.04
2022-10-05T17:52:12.754Z,25.83
2022-10-05T17:54:39.128Z,25.83
2022-10-05T17:57:05.486Z,25.73
2022-10-05T17:59:31.846Z,27.78
2022-10-05T18:01:58.249Z,26.91
2022-10-05T18:04:24.650Z,25.99
2022-10-05T18:06:50.991Z,25.41
2022-10-05T18:09:17.511Z,25.63
2022-10-05T18:11:43.868Z,25.24
2022-10-05T18:14:10.205Z,25.43
2022-10-05T18:16:36.588Z,25.33
2022-10-05T18:19:02.935Z,25.42
2022-10-05T18:21:29.286Z,25.59
2022-10-05T18:23:55.673Z,25.68
2022-10-05T18:26:22.114Z,25.60
2022-10-05T18:28:48.538Z,25.92
2022-10-05T18:31:15.036Z,26.72
2022-10-05T18:33:41.450Z,25.99
2022-10-05T18:36:07.810Z,25.51
2022-10-05T18:38:34.207Z,25.33
2022-10-05T18:41:00.588Z,24.84
2022-10-05T18:43:26.934Z,25.30
2022-10-05T18:45:53.352Z,25.42
2022-10-05T18:48:19.687Z,25.13
2022-10-05T18:50:46.045Z,25.52
2022-10-05T18:53:12.422Z,25.12
2022-10-05T18:55:38.764Z,25.09
2022-10-05T18:58:05.118Z,25.38
2022-10-05T19:00:31.518Z,26.77
2022-10-05T19:02:57.893Z,26.21
2022-10-05T19:05:46.500Z,25.30
2022-10-05T19:08:10.795Z,25.05
2022-10-05T19:10:37.174Z,24.79
2022-10-05T19:13:03.522Z,25.29
2022-10-05T19:15:29.918Z,25.16
2022-10-05T19:17:56.266Z,25.37
2022-10-05T19:20:22.688Z,25.15
2022-10-05T19:22:49.110Z,25.55
2022-10-05T19:25:15.452Z,25.32
2022-10-05T19:27:41.794Z,25.51
2022-10-05T19:30:08.238Z,25.46
2022-10-05T19:32:34.607Z,25.06
2022-10-05T19:35:00.946Z,27.03
2022-10-05T19:37:27.476Z,26.08
2022-10-05T19:39:53.847Z,25.70
2022-10-05T19:42:20.197Z,25.42
2022-10-05T19:44:46.577Z,24.96
2022-10-05T19:47:12.927Z,24.97
2022-10-05T19:49:39.307Z,24.96
2022-10-05T19:52:05.747Z,25.25
2022-10-05T19:54:32.127Z,25.31
2022-10-05T19:56:58.454Z,25.31
2022-10-05T19:59:24.854Z,25.36
2022-10-05T20:01:51.314Z,25.19
2022-10-05T20:04:17.720Z,25.52
2022-10-05T20:06:44.192Z,25.82
2022-10-05T20:09:10.574Z,26.59
2022-10-05T20:11:36.964Z,25.60
2022-10-05T20:14:03.460Z,25.28
2022-10-05T20:16:29.871Z,24.96
2022-10-05T20:18:56.319Z,24.74
2022-10-05T20:21:22.808Z,25.20
2022-10-05T20:23:49.160Z,24.95
2022-10-05T20:26:15.518Z,25.19
2022-10-05T20:28:42.030Z,25.07
2022-10-05T20:31:08.453Z,25.10
2022-10-05T20:33:34.896Z,25.29
2022-10-05T20:36:01.344Z,25.17
2022-10-05T20:38:27.904Z,25.69
2022-10-05T20:40:54.431Z,24.90
2022-10-05T20:43:20.928Z,26.89
2022-10-05T20:45:47.265Z,26.17
2022-10-05T20:48:13.622Z,25.69
2022-10-05T20:50:40.037Z,25.48
2022-10-05T20:53:10.959Z,25.18
2022-10-05T20:55:38.171Z,24.95
2022-10-05T20:58:04.588Z,25.31
2022-10-05T21:00:34.029Z,24.99
2022-10-05T21:03:00.586Z,25.27
2022-10-05T21:05:27.000Z,25.10
2022-10-05T21:07:53.372Z,25.55
2022-10-05T21:10:19.737Z,25.52
2022-10-05T21:12:46.114Z,25.39
2022-10-05T21:15:12.503Z,25.17
2022-10-05T21:17:38.863Z,27.27
2022-10-05T21:20:05.256Z,26.38
2022-10-05T21:22:31.604Z,25.29
2022-10-05T21:24:57.934Z,25.02
2022-10-05T21:27:24.397Z,25.46
2022-10-05T21:29:50.782Z,24.87
2022-10-05T21:32:17.112Z,25.30
2022-10-05T21:34:43.559Z,25.48
2022-10-05T21:37:09.928Z,25.61
2022-10-05T21:39:36.288Z,25.35
2022-10-05T21:42:02.680Z,25.44
2022-10-05T21:44:29.031Z,25.51
2022-10-05T21:46:55.390Z,25.22
2022-10-05T21:49:21.844Z,25.20
2022-10-05T21:51:48.186Z,26.84
2022-10-05T21:54:14.560Z,25.85
2022-10-05T21:56:40.936Z,25.65
2022-10-05T21:59:07.279Z,25.51
2022-10-05T22:01:33.661Z,25.10
2022-10-05T22:04:00.079Z,24.96
2022-10-05T22:06:26.417Z,25.30
2022-10-05T22:08:52.760Z,25.48
2022-10-05T22:11:19.152Z,25.64
2022-10-05T22:13:45.512Z,25.58
2022-10-05T22:16:11.927Z,25.46
2022-10-05T22:18:38.427Z,25.90
2022-10-05T22:21:04.777Z,25.53
2022-10-05T22:23:31.164Z,25.81
2022-10-05T22:25:57.589Z,25.74
2022-10-05T22:28:23.993Z,26.99
2022-10-05T22:30:50.404Z,25.87
2022-10-05T22:33:16.792Z,25.32
2022-10-05T22:35:43.142Z,25.25
2022-10-05T22:38:09.498Z,25.26
2022-10-05T22:40:35.981Z,25.04
2022-10-05T22:43:02.364Z,25.35
2022-10-05T22:45:32.411Z,25.32
2022-10-05T22:47:59.278Z,25.06
2022-10-05T22:50:25.611Z,25.04
2022-10-05T22:52:51.957Z,25.15
2022-10-05T22:55:18.336Z,25.22
2022-10-05T22:57:44.687Z,25.31
2022-10-05T23:00:11.051Z,26.59
2022-10-05T23:02:37.464Z,25.63
2022-10-05T23:05:03.858Z,25.21
2022-10-05T23:07:30.193Z,24.98
2022-10-05T23:09:56.646Z,24.96
2022-10-05T23:12:22.992Z,25.25
2022-10-05T23:14:49.327Z,25.08
2022-10-05T23:17:15.768Z,25.08
2022-10-05T23:19:45.081Z,25.30
2022-10-05T23:22:11.432Z,25.35
2022-10-05T23:24:37.883Z,25.53
2022-10-05T23:27:04.219Z,25.45
2022-10-05T23:29:30.584Z,25.66
2022-10-05T23:31:57.019Z,25.48
2022-10-05T23:34:23.344Z,27.25
2022-10-05T23:36:49.688Z,26.57
2022-10-05T23:39:18.383Z,25.69
2022-10-05T23:41:44.733Z,25.24
2022-10-05T23:44:11.079Z,25.28
2022-10-05T23:46:37.422Z,25.49
2022-10-05T23:49:03.762Z,25.36
2022-10-05T23:51:30.111Z,25.19
2022-10-05T23:53:56.486Z,25.53
2022-10-05T23:56:22.840Z,25.25
2022-10-05T23:58:49.199Z,25.56
